createdAt,value
2023-04-28T00:02:14.096Z,3.80
2023-04-28T00:04:40.979Z,3.60
2023-04-28T00:07:07.743Z,3.22
2023-04-28T00:09:34.053Z,3.30
2023-04-28T00:12:00.619Z,3.28
2023-04-28T00:14:27.035Z,3.05
2023-04-28T00:16:56.892Z,3.67
2023-04-28T00:19:23.306Z,3.25
2023-04-28T00:21:49.645Z,3.58
2023-04-28T00:24:16.219Z,3.97
2023-04-28T00:26:42.663Z,4.20
2023-04-28T00:29:08.987Z,3.83
2023-04-28T00:31:35.488Z,3.40
2023-04-28T00:34:02.055Z,3.15
2023-04-28T00:36:32.124Z,3.28
2023-04-28T00:38:58.943Z,3.40
2023-04-28T00:41:25.554Z,3.58
2023-04-28T00:43:51.929Z,4.05
2023-04-28T00:46:29.673Z,2.78
2023-04-28T00:48:56.249Z,4.05
2023-04-28T00:51:22.597Z,4.60
2023-04-28T00:53:48.960Z,3.65
2023-04-28T00:56:15.726Z,2.92
2023-04-28T00:58:42.527Z,3.33
2023-04-28T01:01:09.738Z,1.55
2023-04-28T01:03:38.106Z,4.28
2023-04-28T01:06:05.178Z,3.85
2023-04-28T01:08:32.313Z,3.50
2023-04-28T01:10:58.698Z,3.53
2023-04-28T01:13:25.121Z,2.75
2023-04-28T01:15:51.795Z,4.03
2023-04-28T01:18:18.278Z,3.28
2023-04-28T01:20:44.661Z,3.92
2023-04-28T01:23:14.529Z,4.18
2023-04-28T01:25:41.267Z,4.63
2023-04-28T01:28:07.862Z,3.40
2023-04-28T01:30:35.493Z,4.80
2023-04-28T01:33:02.496Z,4.50
2023-04-28T01:35:29.012Z,4.00
2023-04-28T01:37:55.443Z,4.03
2023-04-28T01:40:21.916Z,4.20
2023-04-28T01:42:48.280Z,4.00
2023-04-28T01:45:14.563Z,3.67
2023-04-28T01:47:40.948Z,4.57
2023-04-28T01:50:07.519Z,4.13
2023-04-28T01:52:33.849Z,3.88
2023-04-28T01:55:00.221Z,4.28
2023-04-28T01:57:28.991Z,4.78
2023-04-28T01:59:55.635Z,4.40
2023-04-28T02:02:22.168Z,4.07
2023-04-28T02:04:48.559Z,4.18
2023-04-28T02:07:14.934Z,4.15
2023-04-28T02:09:41.352Z,4.05
2023-04-28T02:12:08.318Z,4.57
2023-04-28T02:14:34.638Z,3.85
2023-04-28T02:17:02.928Z,4.38
2023-04-28T02:19:29.334Z,4.35
2023-04-28T02:21:55.660Z,5.13
2023-04-28T02:24:22.542Z,4.25
2023-04-28T02:26:49.101Z,3.90
2023-04-28T02:29:15.577Z,4.30
2023-04-28T02:31:41.949Z,3.45
2023-04-28T02:34:08.311Z,4.43
2023-04-28T02:36:34.635Z,4.60
2023-04-28T02:39:01.355Z,3.80
2023-04-28T02:41:27.919Z,4.40
2023-04-28T02:43:54.334Z,5.22
2023-04-28T02:46:20.766Z,4.63
2023-04-28T02:48:47.102Z,4.10
2023-04-28T02:51:14.196Z,4.20
2023-04-28T02:53:40.806Z,4.80
2023-04-28T02:56:07.276Z,4.82
2023-04-28T02:58:33.649Z,4.10
2023-04-28T03:01:00.117Z,4.63
2023-04-28T03:03:26.904Z,4.35
2023-04-28T03:05:53.506Z,4.65
2023-04-28T03:08:20.936Z,4.75
2023-04-28T03:10:47.302Z,4.00
2023-04-28T03:13:13.618Z,4.35
2023-04-28T03:15:39.980Z,4.68
2023-04-28T03:18:06.548Z,2.60
2023-04-28T03:20:32.973Z,3.45
2023-04-28T03:22:59.408Z,4.00
2023-04-28T03:25:25.737Z,3.85
2023-04-28T03:27:52.152Z,3.95
2023-04-28T03:30:18.688Z,4.43
2023-04-28T03:32:44.995Z,3.53
2023-04-28T03:35:11.415Z,4.85
2023-04-28T03:37:37.770Z,4.18
2023-04-28T03:40:04.314Z,3.35
2023-04-28T03:42:30.794Z,4.40
2023-04-28T03:44:57.199Z,4.65
2023-04-28T03:47:23.526Z,4.63
2023-04-28T03:49:50.299Z,3.42
2023-04-28T03:52:16.775Z,4.10
2023-04-28T03:54:43.126Z,4.78
2023-04-28T03:57:09.522Z,4.35
2023-04-28T03:59:35.901Z,4.53
2023-04-28T04:02:02.421Z,4.43
2023-04-28T04:04:28.949Z,4.22
2023-04-28T04:06:55.520Z,4.15
2023-04-28T04:09:22.025Z,3.83
2023-04-28T04:11:48.456Z,4.13
2023-04-28T04:14:15.016Z,4.65
2023-04-28T04:16:41.747Z,4.57
2023-04-28T04:19:08.194Z,3.75
2023-04-28T04:21:34.566Z,4.82
2023-04-28T04:24:01.406Z,3.35
2023-04-28T04:26:27.792Z,4.03
2023-04-28T04:28:54.131Z,2.60
2023-04-28T04:31:20.735Z,4.15
2023-04-28T04:33:47.661Z,5.65
2023-04-28T04:36:14.067Z,4.05
2023-04-28T04:38:40.563Z,4.88
2023-04-28T04:41:06.988Z,3.95
2023-04-28T04:43:33.341Z,5.47
2023-04-28T04:45:59.968Z,4.60
2023-04-28T04:48:26.305Z,5.28
2023-04-28T04:50:52.642Z,5.10
2023-04-28T04:53:19.002Z,4.57
2023-04-28T04:55:45.378Z,5.93
2023-04-28T04:58:11.696Z,4.63
2023-04-28T05:00:38.120Z,4.03
2023-04-28T05:03:06.264Z,4.65
2023-04-28T05:05:33.021Z,5.05
2023-04-28T05:07:59.481Z,5.88
2023-04-28T05:10:25.912Z,5.55
2023-04-28T05:12:52.234Z,6.05
2023-04-28T05:15:18.615Z,5.40
2023-04-28T05:17:45.268Z,5.90
2023-04-28T05:20:12.845Z,5.80
2023-04-28T05:22:39.379Z,5.20
2023-04-28T05:25:06.826Z,5.00
2023-04-28T05:27:33.130Z,5.47
2023-04-28T05:30:00.000Z,5.57
2023-04-28T05:32:26.337Z,4.90
2023-04-28T05:34:52.681Z,5.50
2023-04-28T05:37:19.005Z,6.25
2023-04-28T05:39:45.360Z,5.32
2023-04-28T05:42:11.983Z,6.10
2023-04-28T05:44:38.356Z,6.85
2023-04-28T05:47:04.812Z,5.25
2023-04-28T05:49:31.101Z,5.43
2023-04-28T05:51:57.427Z,6.55
2023-04-28T05:54:23.855Z,6.25
2023-04-28T05:56:50.464Z,5.28
2023-04-28T05:59:16.993Z,6.03
2023-04-28T06:01:43.629Z,5.68
2023-04-28T06:04:10.193Z,5.13
2023-04-28T06:06:36.892Z,5.00
2023-04-28T06:09:03.515Z,6.80
2023-04-28T06:11:29.901Z,6.85
2023-04-28T06:13:56.238Z,6.90
2023-04-28T06:16:23.589Z,6.70
2023-04-28T06:18:50.232Z,6.75
2023-04-28T06:21:17.223Z,6.32
2023-04-28T06:23:43.706Z,6.90
2023-04-28T06:26:10.129Z,7.35
2023-04-28T06:28:36.546Z,7.15
2023-04-28T06:31:02.982Z,6.43
2023-04-28T06:33:29.423Z,6.97
2023-04-28T06:35:55.821Z,7.03
2023-04-28T06:38:22.199Z,5.75
2023-04-28T06:40:48.571Z,7.78
2023-04-28T06:43:14.881Z,7.75
2023-04-28T06:45:41.799Z,7.65
2023-04-28T06:48:08.324Z,7.35
2023-04-28T06:50:34.684Z,7.43
2023-04-28T06:53:01.269Z,8.23
2023-04-28T06:55:27.599Z,8.48
2023-04-28T06:57:54.077Z,8.25
2023-04-28T07:00:20.946Z,9.25
2023-04-28T07:02:47.499Z,8.02
2023-04-28T07:05:16.090Z,8.25
2023-04-28T07:07:43.056Z,6.65
2023-04-28T07:10:10.599Z,8.55
2023-04-28T07:12:36.973Z,4.90
2023-04-28T07:15:03.432Z,8.85
2023-04-28T07:17:29.874Z,9.00
2023-04-28T07:19:56.232Z,9.23
2023-04-28T07:22:22.816Z,9.43
2023-04-28T07:24:49.221Z,9.35
2023-04-28T07:27:15.541Z,9.15
2023-04-28T07:29:42.146Z,9.68
2023-04-28T07:32:10.558Z,8.77
2023-04-28T07:34:37.311Z,8.93
2023-04-28T07:37:04.039Z,9.23
2023-04-28T07:39:39.155Z,9.25
2023-04-28T07:42:05.723Z,9.75
2023-04-28T07:44:32.463Z,9.85
2023-04-28T07:46:59.235Z,9.85
2023-04-28T07:49:26.290Z,9.95
2023-04-28T07:51:54.945Z,9.57
2023-04-28T07:54:21.440Z,10.30
2023-04-28T07:56:47.918Z,11.10
2023-04-28T07:59:14.637Z,9.98
2023-04-28T08:01:41.180Z,10.80
2023-04-28T08:04:07.937Z,10.88
2023-04-28T08:06:36.098Z,10.35
2023-04-28T08:09:02.550Z,10.25
2023-04-28T08:11:28.942Z,9.80
2023-04-28T08:13:56.787Z,9.63
2023-04-28T08:16:23.614Z,10.60
2023-04-28T08:18:50.114Z,10.70
2023-04-28T08:21:16.527Z,10.32
2023-04-28T08:23:42.877Z,11.45
2023-04-28T08:26:09.237Z,11.77
2023-04-28T08:28:35.624Z,11.23
2023-04-28T08:31:02.065Z,10.90
2023-04-28T08:33:28.484Z,11.13
2023-04-28T08:35:55.202Z,11.43
2023-04-28T08:38:24.033Z,10.00
2023-04-28T08:40:50.403Z,9.15
2023-04-28T08:43:16.845Z,10.23
2023-04-28T08:45:44.518Z,11.45
2023-04-28T08:48:18.349Z,12.35
2023-04-28T08:50:48.886Z,13.00
2023-04-28T08:53:17.014Z,12.55
2023-04-28T08:55:44.108Z,12.00
2023-04-28T08:58:10.839Z,13.68
2023-04-28T09:00:38.118Z,10.35
2023-04-28T09:03:05.745Z,14.10
2023-04-28T09:05:32.367Z,14.98
2023-04-28T09:08:01.730Z,13.30
2023-04-28T09:10:28.183Z,14.82
2023-04-28T09:12:57.397Z,15.18
2023-04-28T09:15:36.783Z,14.75
2023-04-28T09:18:06.919Z,14.30
2023-04-28T09:20:34.583Z,14.27
2023-04-28T09:23:21.117Z,14.63
2023-04-28T09:26:00.792Z,12.95
2023-04-28T09:28:27.200Z,12.05
2023-04-28T09:30:53.627Z,12.43
2023-04-28T09:33:21.732Z,11.70
2023-04-28T09:35:48.657Z,10.48
2023-04-28T09:38:15.705Z,9.00
2023-04-28T09:40:51.598Z,8.00
2023-04-28T09:43:44.112Z,6.97
2023-04-28T09:46:10.588Z,7.40
2023-04-28T09:48:40.744Z,7.38
2023-04-28T09:51:07.823Z,6.50
2023-04-28T09:53:34.577Z,6.05
2023-04-28T09:56:01.912Z,4.95
2023-04-28T09:58:28.882Z,5.18
2023-04-28T10:00:56.564Z,4.75
2023-04-28T10:03:25.104Z,5.00
2023-04-28T10:05:53.716Z,4.22
2023-04-28T10:08:21.458Z,4.22
2023-04-28T10:10:49.411Z,3.95
2023-04-28T10:13:19.461Z,3.30
2023-04-28T10:15:47.598Z,2.67
2023-04-28T10:18:16.070Z,3.75
2023-04-28T10:20:44.313Z,4.80
2023-04-28T10:23:31.326Z,3.92
2023-04-28T10:25:59.630Z,3.83
2023-04-28T10:28:26.645Z,3.97
2023-04-28T10:31:12.149Z,3.67
2023-04-28T10:33:39.190Z,3.13
2023-04-28T10:36:06.347Z,3.05
2023-04-28T10:38:33.503Z,2.75
2023-04-28T10:41:03.426Z,2.80
2023-04-28T10:43:30.807Z,2.83
2023-04-28T10:45:59.996Z,3.45
2023-04-28T10:48:26.585Z,3.45
2023-04-28T10:51:09.735Z,3.15
2023-04-28T10:53:45.637Z,4.68
2023-04-28T10:56:12.430Z,5.18
2023-04-28T10:58:43.508Z,4.40
2023-04-28T11:01:22.444Z,2.70
2023-04-28T11:04:13.184Z,3.83
2023-04-28T11:06:40.686Z,3.15
2023-04-28T11:09:13.956Z,3.65
2023-04-28T11:11:41.038Z,3.20
2023-04-28T11:14:19.517Z,2.70
2023-04-28T11:16:52.101Z,2.47
2023-04-28T11:19:19.440Z,2.10
2023-04-28T11:21:46.917Z,2.03
2023-04-28T11:24:13.256Z,2.10
2023-04-28T11:26:40.100Z,1.20
2023-04-28T11:29:06.460Z,0.80
2023-04-28T11:31:32.840Z,1.25
2023-04-28T11:33:59.366Z,0.80
2023-04-28T11:36:31.749Z,0.60
2023-04-28T11:38:58.368Z,0.68
2023-04-28T11:41:25.002Z,0.57
2023-04-28T11:43:51.593Z,0.50
2023-04-28T11:46:19.036Z,0.40
2023-04-28T11:48:45.849Z,0.50
2023-04-28T11:51:28.264Z,0.50
2023-04-28T11:53:54.998Z,0.50
2023-04-28T11:56:21.378Z,0.50
2023-04-28T11:58:59.972Z,0.50
2023-04-28T12:01:27.648Z,0.40
2023-04-28T12:03:55.317Z,0.55
2023-04-28T12:06:21.867Z,0.35
2023-04-28T12:08:48.786Z,0.57
2023-04-28T12:11:16.191Z,0.68
2023-04-28T12:13:43.889Z,0.57
2023-04-28T12:16:10.746Z,0.55
2023-04-28T12:18:37.509Z,0.40
2023-04-28T12:21:03.901Z,0.75
2023-04-28T12:23:34.025Z,0.80
2023-04-28T12:26:00.900Z,1.15
2023-04-28T12:28:40.325Z,0.90
2023-04-28T12:31:08.890Z,1.70
2023-04-28T12:33:38.610Z,1.75
2023-04-28T12:36:05.972Z,1.73
2023-04-28T12:38:32.752Z,1.65
2023-04-28T12:40:59.525Z,1.85
2023-04-28T12:43:27.137Z,1.73
2023-04-28T12:45:55.043Z,2.30
2023-04-28T12:48:23.812Z,3.00
2023-04-28T12:50:50.422Z,1.60
2023-04-28T12:53:16.881Z,1.50
2023-04-28T12:55:43.288Z,2.63
2023-04-28T12:58:09.793Z,2.13
2023-04-28T13:00:36.229Z,2.35
2023-04-28T13:03:02.778Z,1.90
2023-04-28T13:05:29.275Z,3.42
2023-04-28T13:07:56.349Z,4.35
2023-04-28T13:10:23.314Z,3.78
2023-04-28T13:12:49.767Z,4.40
2023-04-28T13:15:16.180Z,4.15
2023-04-28T13:17:42.782Z,2.75
2023-04-28T13:20:09.504Z,2.15
2023-04-28T13:22:35.937Z,4.05
2023-04-28T13:25:02.517Z,3.70
2023-04-28T13:27:30.494Z,3.30
2023-04-28T13:29:59.262Z,3.63
2023-04-28T13:32:26.027Z,3.35
2023-04-28T13:34:52.440Z,3.55
2023-04-28T13:37:18.911Z,1.92
2023-04-28T13:39:45.260Z,3.55
2023-04-28T13:42:13.169Z,3.20
2023-04-28T13:44:39.622Z,2.42
2023-04-28T13:47:09.158Z,2.35
2023-04-28T13:49:37.244Z,2.85
2023-04-28T13:52:03.661Z,2.88
2023-04-28T13:54:29.989Z,3.33
2023-04-28T13:56:56.506Z,4.05
2023-04-28T13:59:22.853Z,3.58
2023-04-28T14:01:49.312Z,3.38
2023-04-28T14:04:16.086Z,3.35
2023-04-28T14:06:42.881Z,3.17
2023-04-28T14:09:09.809Z,2.45
2023-04-28T14:11:36.471Z,3.70
2023-04-28T14:14:03.761Z,2.65
2023-04-28T14:16:30.754Z,2.38
2023-04-28T14:18:58.000Z,2.33
2023-04-28T14:21:24.389Z,3.40
2023-04-28T14:23:50.769Z,2.80
2023-04-28T14:26:17.097Z,3.67
2023-04-28T14:28:43.471Z,2.63
2023-04-28T14:31:10.075Z,4.25
2023-04-28T14:33:37.082Z,2.90
2023-04-28T14:36:04.047Z,4.00
2023-04-28T14:38:30.834Z,3.83
2023-04-28T14:40:57.680Z,3.20
2023-04-28T14:43:24.127Z,1.88
2023-04-28T14:45:51.159Z,3.38
2023-04-28T14:48:17.608Z,2.72
2023-04-28T14:50:44.650Z,3.70
2023-04-28T14:53:11.037Z,2.80
2023-04-28T14:55:37.523Z,1.58
2023-04-28T14:58:04.348Z,1.90
2023-04-28T15:00:31.388Z,2.17
2023-04-28T15:02:58.095Z,2.30
2023-04-28T15:05:24.567Z,2.38
2023-04-28T15:07:51.029Z,1.98
2023-04-28T15:10:17.897Z,1.25
2023-04-28T15:12:44.412Z,1.90
2023-04-28T15:15:11.229Z,2.55
2023-04-28T15:17:37.781Z,2.25
2023-04-28T15:20:04.688Z,1.70
2023-04-28T15:22:31.349Z,1.27
2023-04-28T15:24:57.744Z,1.33
2023-04-28T15:27:24.080Z,1.20
2023-04-28T15:29:50.717Z,1.38
2023-04-28T15:32:17.459Z,1.58
2023-04-28T15:34:44.185Z,1.40
2023-04-28T15:37:29.186Z,1.48
2023-04-28T15:39:55.787Z,1.58
2023-04-28T15:42:22.287Z,1.23
2023-04-28T15:44:48.779Z,1.30
2023-04-28T15:47:15.256Z,1.30
2023-04-28T15:49:41.688Z,1.85
2023-04-28T15:52:08.010Z,1.30
2023-04-28T15:54:34.320Z,1.38
2023-04-28T15:57:00.759Z,1.00
2023-04-28T15:59:27.316Z,1.50
2023-04-28T16:01:55.450Z,1.05
2023-04-28T16:04:22.279Z,1.20
2023-04-28T16:06:50.309Z,0.75
2023-04-28T16:09:16.701Z,0.80
2023-04-28T16:11:43.123Z,1.15
2023-04-28T16:14:09.545Z,0.85
2023-04-28T16:16:35.956Z,1.10
2023-04-28T16:19:03.100Z,0.70
2023-04-28T16:21:29.535Z,1.27
2023-04-28T16:23:56.010Z,1.05
2023-04-28T16:26:22.489Z,1.13
2023-04-28T16:28:48.828Z,1.50
2023-04-28T16:31:15.399Z,1.02
2023-04-28T16:33:42.626Z,1.30
2023-04-28T16:36:08.932Z,1.20
2023-04-28T16:38:35.629Z,1.42
2023-04-28T16:41:01.999Z,1.23
2023-04-28T16:43:28.354Z,0.80
2023-04-28T16:45:54.865Z,0.70
2023-04-28T16:48:21.527Z,0.70
2023-04-28T16:50:47.819Z,0.70
2023-04-28T16:53:14.270Z,1.52
2023-04-28T16:55:40.611Z,0.98
2023-04-28T16:58:07.583Z,1.08
2023-04-28T17:00:33.878Z,1.48
2023-04-28T17:03:00.580Z,1.65
2023-04-28T17:05:27.098Z,3.00
2023-04-28T17:07:55.033Z,2.50
2023-04-28T17:10:22.303Z,2.10
2023-04-28T17:12:48.608Z,5.22
2023-04-28T17:15:18.300Z,4.18
2023-04-28T17:17:46.781Z,6.38
2023-04-28T17:20:16.611Z,6.22
2023-04-28T17:22:43.741Z,6.82
2023-04-28T17:25:10.914Z,8.27
2023-04-28T17:27:37.296Z,9.18
2023-04-28T17:30:04.229Z,5.38
2023-04-28T17:32:33.209Z,9.10
2023-04-28T17:34:59.682Z,10.30
2023-04-28T17:37:26.233Z,13.85
2023-04-28T17:39:52.869Z,10.93
2023-04-28T17:42:19.415Z,14.07
2023-04-28T17:44:45.796Z,9.00
2023-04-28T17:47:12.127Z,11.13
2023-04-28T17:49:39.282Z,13.15
2023-04-28T17:52:05.613Z,13.80
2023-04-28T17:54:32.248Z,13.65
2023-04-28T17:56:58.702Z,12.85
2023-04-28T17:59:25.075Z,7.43
2023-04-28T18:01:53.759Z,7.25
2023-04-28T18:04:20.236Z,6.32
2023-04-28T18:06:46.712Z,10.52
2023-04-28T18:09:13.106Z,13.45
2023-04-28T18:11:39.599Z,9.07
2023-04-28T18:14:06.423Z,7.50
2023-04-28T18:16:32.798Z,9.15
2023-04-28T18:18:59.556Z,12.75
2023-04-28T18:21:25.951Z,8.82
2023-04-28T18:23:52.300Z,14.63
2023-04-28T18:26:18.664Z,12.70
2023-04-28T18:28:48.193Z,8.27
2023-04-28T18:31:14.515Z,13.75
2023-04-28T18:33:40.852Z,15.57
2023-04-28T18:36:07.686Z,14.23
2023-04-28T18:38:37.065Z,11.00
2023-04-28T18:41:16.632Z,8.80
2023-04-28T18:43:43.508Z,9.82
2023-04-28T18:46:10.388Z,16.35
2023-04-28T18:48:36.895Z,15.25
2023-04-28T18:51:04.233Z,13.07
2023-04-28T18:53:30.729Z,8.90
2023-04-28T18:55:58.281Z,12.00
2023-04-28T18:58:25.501Z,14.43
2023-04-28T19:00:52.619Z,14.75
2023-04-28T19:03:19.533Z,14.63
2023-04-28T19:05:46.439Z,11.93
2023-04-28T19:08:13.107Z,14.05
2023-04-28T19:10:39.522Z,14.93
2023-04-28T19:13:05.886Z,15.27
2023-04-28T19:15:33.006Z,8.32
2023-04-28T19:17:59.581Z,16.75
2023-04-28T19:20:26.187Z,14.75
2023-04-28T19:22:52.733Z,13.18
2023-04-28T19:25:19.083Z,6.85
2023-04-28T19:27:45.588Z,16.98
2023-04-28T19:30:13.099Z,16.85
2023-04-28T19:32:40.211Z,18.02
2023-04-28T19:35:07.332Z,18.33
2023-04-28T19:37:34.913Z,16.65
2023-04-28T19:40:01.906Z,14.10
2023-04-28T19:42:28.673Z,11.32
2023-04-28T19:44:55.848Z,14.50
2023-04-28T19:47:29.921Z,15.00
2023-04-28T19:49:56.621Z,17.73
2023-04-28T19:52:25.077Z,15.30
2023-04-28T19:54:51.923Z,14.95
2023-04-28T19:57:18.818Z,14.00
2023-04-28T19:59:45.763Z,16.50
2023-04-28T20:02:12.598Z,14.65
2023-04-28T20:04:39.693Z,17.30
2023-04-28T20:07:06.773Z,13.25
2023-04-28T20:09:33.941Z,6.97
2023-04-28T20:12:00.914Z,12.82
2023-04-28T20:14:27.708Z,14.70
2023-04-28T20:16:54.031Z,10.57
2023-04-28T20:19:20.449Z,11.77
2023-04-28T20:21:46.979Z,15.57
2023-04-28T20:24:13.496Z,14.90
2023-04-28T20:26:39.825Z,13.70
2023-04-28T20:29:08.374Z,13.90
2023-04-28T20:31:35.232Z,13.85
2023-04-28T20:34:02.932Z,6.97
2023-04-28T20:36:30.640Z,12.10
2023-04-28T20:38:57.013Z,10.57
2023-04-28T20:41:23.861Z,12.82
2023-04-28T20:43:52.378Z,12.48
2023-04-28T20:46:19.063Z,13.45
2023-04-28T20:48:45.506Z,13.68
2023-04-28T20:51:11.898Z,13.02
2023-04-28T20:53:39.555Z,13.52
2023-04-28T20:56:06.485Z,14.50
2023-04-28T20:58:32.886Z,12.07
2023-04-28T21:00:59.292Z,8.55
2023-04-28T21:03:26.151Z,12.57
2023-04-28T21:05:52.550Z,10.15
2023-04-28T21:08:19.033Z,10.85
2023-04-28T21:10:45.370Z,10.65
2023-04-28T21:13:12.984Z,9.52
2023-04-28T21:15:40.171Z,9.40
2023-04-28T21:18:06.881Z,8.80
2023-04-28T21:20:33.488Z,6.85
2023-04-28T21:22:59.882Z,8.50
2023-04-28T21:25:26.373Z,9.52
2023-04-28T21:27:53.187Z,8.07
2023-04-28T21:30:19.927Z,8.35
2023-04-28T21:32:46.308Z,6.22
2023-04-28T21:35:12.947Z,6.50
2023-04-28T21:37:39.412Z,6.60
2023-04-28T21:40:06.087Z,5.65
2023-04-28T21:42:34.485Z,6.63
2023-04-28T21:45:01.192Z,6.88
2023-04-28T21:47:28.365Z,6.53
2023-04-28T21:49:54.811Z,7.07
2023-04-28T21:52:21.280Z,7.15
2023-04-28T21:54:47.653Z,7.68
2023-04-28T21:57:15.887Z,7.00
2023-04-28T21:59:42.409Z,7.55
2023-04-28T22:02:09.174Z,8.40
2023-04-28T22:04:35.976Z,7.90
2023-04-28T22:07:04.179Z,7.68
2023-04-28T22:09:30.929Z,7.53
2023-04-28T22:11:57.286Z,8.00
2023-04-28T22:14:39.635Z,8.98
2023-04-28T22:17:07.537Z,8.60
2023-04-28T22:19:34.272Z,8.52
2023-04-28T22:22:00.772Z,7.03
2023-04-28T22:24:27.922Z,7.50
2023-04-28T22:26:54.903Z,5.43
2023-04-28T22:29:21.638Z,7.38
2023-04-28T22:31:48.153Z,8.32
2023-04-28T22:34:14.599Z,7.72
2023-04-28T22:36:42.086Z,6.03
2023-04-28T22:39:08.578Z,6.47
2023-04-28T22:41:34.903Z,6.95
2023-04-28T22:44:01.224Z,7.65
2023-04-28T22:46:28.771Z,7.03
2023-04-28T22:48:55.560Z,7.55
2023-04-28T22:51:22.148Z,7.28
2023-04-28T22:53:48.696Z,8.27
2023-04-28T22:56:15.502Z,8.07
2023-04-28T22:58:41.880Z,7.88
2023-04-28T23:01:08.492Z,8.10
2023-04-28T23:03:35.066Z,10.35
2023-04-28T23:06:01.454Z,10.40
2023-04-28T23:08:27.819Z,10.57
2023-04-28T23:10:54.862Z,10.48
2023-04-28T23:13:21.151Z,10.02
2023-04-28T23:15:47.592Z,10.02
2023-04-28T23:18:14.035Z,9.90
2023-04-28T23:20:40.349Z,10.07
2023-04-28T23:23:06.707Z,10.32
2023-04-28T23:25:33.086Z,9.77
2023-04-28T23:27:59.439Z,9.52
2023-04-28T23:30:25.875Z,9.60
2023-04-28T23:32:52.196Z,8.95
2023-04-28T23:35:18.611Z,8.25
2023-04-28T23:37:45.064Z,8.90
2023-04-28T23:40:11.808Z,8.07
2023-04-28T23:42:38.403Z,9.43
2023-04-28T23:45:06.325Z,8.23
2023-04-28T23:47:33.026Z,9.00
2023-04-28T23:49:59.422Z,8.02
2023-04-28T23:52:25.721Z,8.80
2023-04-28T23:54:52.092Z,8.68
2023-04-28T23:57:19.063Z,8.40
2023-04-28T23:59:45.402Z,8.90
